KORL/ORL METAR and TAF weather

Enter ICAO airport designator
Station Type Date Time Source
KORL METAR 2022/07/03 15:09 UTC NOAA

KORL 031509Z 22006KT 10SM SCT027 BKN048 BKN095 30/23 A3012 RMK AO2 T03000233 $


Station Type Date Time Source
KORL Decoded METAR 2022/07/03 15:09 UTC NOAA

ORLANDO EXECUTIVE AIRPORT, FL, United States (KORL) 28-33N 081-20W 37M
Jul 03, 2022 - 11:09 AM EDT / 2022.07.03 1509 UTC
Wind: from the SW (220 degrees) at 7 MPH (6 KT):0
Visibility: 10 mile(s):0
Sky conditions: mostly cloudy
Temperature: 86.0 F (30.0 C)
Heat index: 93.7 F (34.3 C):1
Dew Point: 73.9 F (23.3 C)
Relative Humidity: 67%
Pressure (altimeter): 30.12 in. Hg (1019 hPa)
ob: KORL 031509Z 22006KT 10SM SCT027 BKN048 BKN095 30/23 A3012 RMK AO2 T03000233
cycle: 15

Station Type Date Time Source
KORL TAF UTC NOAA

Error!

Example: see airport list